Time;durP1;ratioP1;P1;durP2;ratioP2;P2;SDS_P1;SDS_P2;PMS_P1;PMS_P2;Temp;Humidity;BMP_temperature;BMP_pressure;BME280_temperature;BME280_humidity;BME280_pressure;Samples;Min_cycle;Max_cycle;Signal;HPM_P1;HPM_P2
2023/10/12 03:56:14;;;;;;;14.93;9.70;;;;;;;10.59;100.00;100757.06;5981338;27;20127;-89
2023/10/12 03:59:26;;;;;;;16.25;10.38;;;;;;;10.59;100.00;100755.22;5365261;33;33663;-89
2023/10/12 04:02:30;;;;;;;14.82;10.43;;;;;;;10.65;100.00;100749.16;5366509;33;34409;-85
2023/10/12 04:05:46;;;;;;;20.62;10.32;;;;;;;10.65;100.00;100754.53;5379510;33;34781;-85
2023/10/12 04:08:54;;;;;;;17.65;9.75;;;;;;;10.74;100.00;100759.94;5380278;33;33798;-85
2023/10/12 04:12:16;;;;;;;15.48;10.30;;;;;;;10.67;100.00;100755.19;5380055;33;34706;-85
2023/10/12 04:15:27;;;;;;;16.98;10.10;;;;;;;10.61;100.00;100758.56;5379693;33;33926;-85
2023/10/12 04:18:32;;;;;;;15.32;9.98;;;;;;;10.63;100.00;100761.09;5356783;33;33800;-85
2023/10/12 04:21:57;;;;;;;22.45;12.45;;;;;;;10.59;100.00;100757.91;5380094;33;33941;-85
2023/10/12 04:25:12;;;;;;;26.55;12.05;;;;;;;10.55;100.00;100753.84;5369361;33;35099;-85
2023/10/12 04:28:23;;;;;;;21.62;11.82;;;;;;;10.56;100.00;100758.25;5380169;33;34547;-85
2023/10/12 04:34:46;;;;;;;19.65;11.68;;;;;;;10.53;100.00;100755.03;5381043;33;33526;-84
2023/10/12 04:37:50;;;;;;;18.95;10.35;;;;;;;10.53;100.00;100763.97;5372231;33;34539;-84
2023/10/12 04:47:29;;;;;;;17.80;11.02;;;;;;;10.46;100.00;100749.47;5356318;33;34352;-85
2023/10/12 04:50:52;;;;;;;24.70;11.85;;;;;;;10.39;100.00;100745.78;5378863;33;33993;-85
2023/10/12 04:54:04;;;;;;;20.40;10.98;;;;;;;10.37;100.00;100747.78;5346278;33;33896;-85
2023/10/12 05:00:17;;;;;;;23.58;11.30;;;;;;;10.35;100.00;100750.62;5354299;33;34705;-85
2023/10/12 05:03:33;;;;;;;18.37;10.88;;;;;;;10.33;100.00;100754.53;5366431;33;33717;-85
2023/10/12 05:06:47;;;;;;;18.02;10.55;;;;;;;10.28;100.00;100752.34;5379012;33;34867;-85
2023/10/12 05:09:50;;;;;;;20.60;11.05;;;;;;;10.27;100.00;100750.66;5366982;33;33830;-85
2023/10/12 05:13:05;;;;;;;20.62;10.88;;;;;;;10.34;100.00;100757.03;5378459;33;34327;-84
2023/10/12 05:16:14;;;;;;;17.95;10.68;;;;;;;10.34;100.00;100759.72;5379142;33;33960;-84
2023/10/12 05:19:17;;;;;;;17.90;10.55;;;;;;;10.35;100.00;100768.66;5379144;33;33485;-84
2023/10/12 05:22:20;;;;;;;19.37;11.35;;;;;;;10.37;100.00;100763.94;5365632;33;33724;-84
2023/10/12 05:25:32;;;;;;;20.77;10.25;;;;;;;10.33;100.00;100757.22;5379106;33;33586;-84
2023/10/12 05:28:40;;;;;;;18.05;11.00;;;;;;;10.37;100.00;100759.41;5366888;33;33822;-84
2023/10/12 05:35:15;;;;;;;18.73;11.07;;;;;;;10.42;100.00;100770.50;5346852;33;34491;-84
2023/10/12 05:38:19;;;;;;;18.17;11.38;;;;;;;10.51;100.00;100770.53;5357354;33;34738;-84
2023/10/12 05:44:34;;;;;;;19.62;10.48;;;;;;;10.57;100.00;100768.00;5356412;33;34391;-84
2023/10/12 05:47:43;;;;;;;17.52;9.60;;;;;;;10.65;100.00;100772.53;5345112;33;33512;-84
2023/10/12 05:50:50;;;;;;;21.05;11.38;;;;;;;10.69;100.00;100763.09;5346792;33;35303;-83
2023/10/12 05:54:02;;;;;;;17.30;10.98;;;;;;;10.80;100.00;100764.62;5369473;33;32544;-85
2023/10/12 05:57:12;;;;;;;14.80;8.70;;;;;;;10.92;100.00;100768.66;5361240;33;32712;-85
2023/10/12 06:00:41;;;;;;;16.55;7.75;;;;;;;11.13;100.00;100771.63;5366954;33;34747;-85
2023/10/12 06:03:43;;;;;;;14.87;8.07;;;;;;;11.37;100.00;100758.25;5361662;33;33540;-86
2023/10/12 06:06:47;;;;;;;12.40;6.90;;;;;;;11.50;100.00;100770.19;5363648;33;34652;-85
2023/10/12 06:09:53;;;;;;;11.25;6.75;;;;;;;11.70;100.00;100785.94;5341637;33;33943;-85
2023/10/12 06:12:56;;;;;;;12.43;6.57;;;;;;;11.89;100.00;100801.75;5364493;33;34949;-84
2023/10/12 06:16:00;;;;;;;8.48;5.90;;;;;;;12.06;100.00;100799.81;5367896;33;32681;-84
2023/10/12 06:19:03;;;;;;;9.80;6.07;;;;;;;12.14;100.00;100798.91;5362692;33;34476;-85
2023/10/12 06:22:19;;;;;;;8.25;6.12;;;;;;;12.22;100.00;100794.28;5353494;33;33558;-85
2023/10/12 06:25:23;;;;;;;18.30;7.12;;;;;;;12.51;100.00;100800.84;5325719;33;33952;-85
2023/10/12 06:28:27;;;;;;;12.15;6.12;;;;;;;12.84;100.00;100803.28;5361616;33;34104;-85
2023/10/12 06:31:30;;;;;;;9.30;5.70;;;;;;;13.04;100.00;100803.63;5354039;33;33886;-86
2023/10/12 06:34:35;;;;;;;10.82;6.32;;;;;;;13.18;100.00;100804.69;5347900;33;33694;-88
2023/10/12 06:41:01;;;;;;;;;;;;;;;13.29;100.00;100793.44;5351006;33;35088;-85
2023/10/12 06:44:25;;;;;;;8.93;5.40;;;;;;;13.27;100.00;100788.22;5362373;33;34152;-85
2023/10/12 06:47:33;;;;;;;8.80;4.97;;;;;;;13.35;100.00;100784.59;5339454;33;33830;-83
2023/10/12 06:50:36;;;;;;;12.68;5.43;;;;;;;13.30;100.00;100787.00;5348158;33;34869;-83
2023/10/12 06:53:41;;;;;;;16.37;6.07;;;;;;;13.45;100.00;100795.12;5336799;33;34992;-84
2023/10/12 06:56:49;;;;;;;16.23;5.95;;;;;;;13.60;100.00;100794.09;5347063;33;33891;-83
2023/10/12 07:00:18;;;;;;;6.35;4.80;;;;;;;13.65;100.00;100793.53;5360321;33;33659;-83
2023/10/12 07:03:22;;;;;;;8.90;5.10;;;;;;;13.77;100.00;100797.44;5347428;33;33602;-83
2023/10/12 07:06:28;;;;;;;9.52;5.45;;;;;;;13.99;100.00;100800.22;5351615;33;33900;-84
2023/10/12 07:09:50;;;;;;;8.48;5.68;;;;;;;14.14;100.00;100797.47;5353572;33;33834;-83
2023/10/12 07:12:59;;;;;;;7.05;5.40;;;;;;;14.18;100.00;100794.16;5338611;33;34257;-83
2023/10/12 07:16:02;;;;;;;8.30;5.20;;;;;;;14.37;100.00;100794.59;5372627;33;33921;-83
2023/10/12 07:19:06;;;;;;;8.15;5.37;;;;;;;14.49;100.00;100798.47;5363756;33;33852;-83
2023/10/12 07:22:18;;;;;;;7.22;5.05;;;;;;;14.62;100.00;100800.47;5350725;33;33697;-83
2023/10/12 07:25:23;;;;;;;8.63;4.70;;;;;;;14.74;100.00;100791.66;5347155;33;34607;-87
2023/10/12 07:28:39;;;;;;;7.72;4.90;;;;;;;14.80;100.00;100781.03;5359441;33;33613;-87
2023/10/12 07:31:44;;;;;;;15.98;5.37;;;;;;;14.82;100.00;100779.00;5350198;33;34402;-83
2023/10/12 07:34:54;;;;;;;10.55;5.68;;;;;;;14.95;100.00;100779.94;5369353;33;33702;-83
2023/10/12 07:38:02;;;;;;;9.05;5.32;;;;;;;15.24;100.00;100779.91;5376475;33;33532;-83
2023/10/12 07:41:05;;;;;;;9.75;5.93;;;;;;;15.27;100.00;100785.81;5364022;33;33840;-83
2023/10/12 07:44:09;;;;;;;9.43;5.85;;;;;;;15.24;100.00;100785.34;5369122;33;34698;-83
2023/10/12 07:47:18;;;;;;;8.77;5.37;;;;;;;15.26;100.00;100783.28;5365510;33;34327;-82
2023/10/12 07:50:25;;;;;;;;;;;;;;;15.34;100.00;100783.97;5359692;33;33846;-83
2023/10/12 07:53:29;;;;;;;9.23;5.50;;;;;;;15.60;100.00;100774.31;5372774;33;34487;-83
2023/10/12 07:56:34;;;;;;;11.70;5.97;;;;;;;15.73;100.00;100776.25;5356424;33;33951;-82
2023/10/12 07:59:38;;;;;;;7.85;5.45;;;;;;;15.89;100.00;100775.09;5359631;33;34069;-82
2023/10/12 08:05:57;;;;;;;8.80;5.68;;;;;;;16.12;100.00;100772.00;5370167;33;34591;-81
2023/10/12 08:09:19;;;;;;;10.32;5.55;;;;;;;16.27;100.00;100770.00;5372242;33;33144;-82
2023/10/12 08:12:26;;;;;;;9.55;5.68;;;;;;;16.29;100.00;100773.31;5347904;33;34021;-81
2023/10/12 08:15:49;;;;;;;12.00;6.22;;;;;;;16.35;100.00;100769.81;5348405;33;34494;-81
2023/10/12 08:22:08;;;;;;;12.30;6.03;;;;;;;16.52;100.00;100764.78;5349473;33;33528;-81
2023/10/12 08:25:14;;;;;;;10.85;5.97;;;;;;;16.69;100.00;100759.78;5360531;33;33707;-86
2023/10/12 08:28:21;;;;;;;7.32;5.45;;;;;;;16.42;100.00;100765.19;5363201;33;34834;-87
2023/10/12 08:31:27;;;;;;;8.98;5.65;;;;;;;16.59;100.00;100764.81;5347233;33;34278;-82
2023/10/12 08:38:09;;;;;;;;;;;;;;;16.81;100.00;100755.41;5348994;33;33652;-82
2023/10/12 08:44:19;;;;;;;11.45;6.10;;;;;;;17.38;100.00;100755.78;5361248;33;32624;-83
2023/10/12 08:50:49;;;;;;;14.27;6.68;;;;;;;17.54;100.00;100744.41;5365046;33;33799;-84
2023/10/12 08:53:52;;;;;;;10.77;6.75;;;;;;;17.64;100.00;100744.81;5363486;33;34011;-84
2023/10/12 08:57:01;;;;;;;10.57;7.05;;;;;;;17.81;100.00;100744.31;5362500;33;33541;-83
2023/10/12 09:03:29;;;;;;;12.27;6.82;;;;;;;18.12;100.00;100725.31;5368133;33;32151;-84
2023/10/12 09:09:55;;;;;;;13.30;7.55;;;;;;;18.64;100.00;100729.78;5341887;33;33767;-84
2023/10/12 09:12:58;;;;;;;10.30;6.65;;;;;;;18.74;97.70;100730.12;5343089;33;33940;-87
2023/10/12 09:16:09;;;;;;;11.73;7.07;;;;;;;18.89;97.19;100733.34;5357314;33;34843;-88
2023/10/12 09:19:23;;;;;;;13.57;6.93;;;;;;;18.90;96.63;100723.28;5335968;33;33604;-84
2023/10/12 09:22:29;;;;;;;9.27;6.85;;;;;;;18.91;98.29;100720.31;5357279;33;35400;-83
2023/10/12 09:26:15;;;;;;;10.68;7.07;;;;;;;18.90;96.98;100715.94;5367225;33;33833;-84
2023/10/12 09:35:19;;;;;;;13.50;7.30;;;;;;;19.43;97.22;100711.81;5335531;33;33756;-83
2023/10/12 09:38:22;;;;;;;26.27;8.55;;;;;;;19.68;95.54;100712.53;5346984;33;34080;-84
2023/10/12 09:41:32;;;;;;;13.02;6.75;;;;;;;19.90;94.85;100714.81;5345844;33;33364;-83
2023/10/12 09:44:39;;;;;;;14.70;6.57;;;;;;;19.92;91.90;100705.31;5358997;33;33615;-83
2023/10/12 09:47:44;;;;;;;11.50;7.12;;;;;;;19.99;91.51;100702.47;5361111;33;35815;-83
2023/10/12 09:50:50;;;;;;;10.52;7.07;;;;;;;20.21;90.60;100694.59;5364878;33;35141;-83
2023/10/12 09:53:59;;;;;;;12.52;7.15;;;;;;;20.33;91.86;100689.16;5377132;33;33695;-83
2023/10/12 09:57:19;;;;;;;13.07;7.20;;;;;;;20.56;89.32;100688.37;5382625;33;33995;-83
2023/10/12 10:00:28;;;;;;;11.45;6.70;;;;;;;20.75;86.02;100694.59;5350704;33;34359;-83
2023/10/12 10:03:43;;;;;;;10.73;6.72;;;;;;;20.82;86.84;100690.63;5374079;33;34394;-83
2023/10/12 10:06:51;;;;;;;11.15;7.37;;;;;;;21.04;85.69;100688.16;5344287;33;33642;-87
2023/10/12 10:10:01;;;;;;;11.70;6.62;;;;;;;21.13;83.51;100680.41;5360752;33;33747;-84
2023/10/12 10:13:12;;;;;;;10.27;6.65;;;;;;;21.31;83.14;100676.66;5360806;33;34437;-84
2023/10/12 10:16:19;;;;;;;11.25;6.70;;;;;;;21.35;82.84;100666.88;5360935;33;33028;-84
2023/10/12 10:19:28;;;;;;;10.32;6.22;;;;;;;21.24;83.41;100674.06;5359948;33;34642;-84
2023/10/12 10:22:37;;;;;;;11.02;6.37;;;;;;;21.21;85.08;100674.56;5361597;33;33518;-84
2023/10/12 10:25:54;;;;;;;15.47;7.70;;;;;;;21.35;83.80;100672.38;5353265;33;33855;-83
2023/10/12 10:29:04;;;;;;;14.02;6.72;;;;;;;21.63;81.50;100671.59;5386384;33;33989;-83
2023/10/12 10:32:07;;;;;;;13.68;6.90;;;;;;;21.83;81.52;100667.59;5379649;33;34154;-83
2023/10/12 10:35:14;;;;;;;11.88;6.97;;;;;;;21.94;80.41;100662.06;5358085;33;34369;-83
2023/10/12 10:38:17;;;;;;;12.18;7.00;;;;;;;22.04;79.54;100664.16;5357143;33;34067;-84
2023/10/12 10:41:45;;;;;;;9.70;6.35;;;;;;;21.83;81.80;100659.38;5365393;33;34836;-83
2023/10/12 10:44:52;;;;;;;12.60;6.85;;;;;;;21.88;81.62;100657.56;5369785;33;33603;-83
2023/10/12 10:47:56;;;;;;;13.48;7.28;;;;;;;22.17;79.86;100654.78;5364872;33;34761;-84
2023/10/12 10:54:55;;;;;;;10.60;6.47;;;;;;;22.51;79.90;100646.59;5357967;33;34867;-87
2023/10/12 10:58:00;;;;;;;13.35;6.78;;;;;;;23.02;78.05;100648.22;5365022;33;33814;-84
2023/10/12 11:01:07;;;;;;;10.52;6.70;;;;;;;23.33;76.49;100643.09;5357729;33;34075;-83
2023/10/12 11:04:17;;;;;;;13.43;7.03;;;;;;;23.65;74.37;100643.19;5351034;33;33987;-82
2023/10/12 11:07:22;;;;;;;13.93;6.72;;;;;;;23.89;71.58;100640.16;5368807;33;33828;-83
2023/10/12 11:10:31;;;;;;;11.80;7.07;;;;;;;23.92;71.15;100639.66;5363211;33;33956;-83
2023/10/12 11:13:38;;;;;;;11.77;6.85;;;;;;;24.50;68.95;100635.22;5358969;33;34600;-82
2023/10/12 11:16:51;;;;;;;11.07;6.55;;;;;;;25.05;67.84;100635.84;5372910;33;34579;-83
2023/10/12 11:19:54;;;;;;;11.77;7.00;;;;;;;25.56;65.06;100627.78;5348562;33;33857;-83
2023/10/12 11:23:03;;;;;;;12.18;6.60;;;;;;;25.88;61.56;100622.09;5355749;33;34601;-83
2023/10/12 11:26:17;;;;;;;12.60;6.30;;;;;;;26.27;58.89;100613.31;5369225;33;34786;-83
2023/10/12 11:29:22;;;;;;;9.13;5.90;;;;;;;26.53;57.49;100607.75;5346651;33;35219;-83
2023/10/12 11:32:28;;;;;;;11.45;6.03;;;;;;;26.83;55.68;100607.72;5370673;33;33672;-81
2023/10/12 11:35:45;;;;;;;15.32;5.68;;;;;;;27.18;54.05;100600.44;5350125;33;33455;-83
2023/10/12 11:38:59;;;;;;;15.15;6.25;;;;;;;27.72;53.20;100605.09;5383499;33;33901;-82
2023/10/12 11:42:04;;;;;;;11.65;5.85;;;;;;;29.08;48.58;100602.53;5361967;33;34288;-81
2023/10/12 11:45:08;;;;;;;12.77;5.53;;;;;;;30.04;45.22;100588.38;5383854;33;33864;-82
2023/10/12 11:48:21;;;;;;;8.80;5.78;;;;;;;31.71;37.71;100576.19;5357978;33;34402;-82
2023/10/12 11:51:24;;;;;;;14.02;6.00;;;;;;;32.64;35.37;100565.19;5337788;33;34903;-86
2023/10/12 11:54:33;;;;;;;9.73;5.65;;;;;;;33.72;32.78;100564.81;5337367;33;33585;-87
2023/10/12 11:57:40;;;;;;;10.13;5.47;;;;;;;34.42;32.23;100563.53;5327918;33;33665;-83
2023/10/12 12:00:48;;;;;;;11.55;4.62;;;;;;;36.04;30.14;100565.22;5359221;33;34966;-82
2023/10/12 12:03:54;;;;;;;11.70;5.35;;;;;;;37.25;28.49;100571.28;5377699;33;34672;-83
2023/10/12 12:06:59;;;;;;;9.15;5.15;;;;;;;37.98;26.65;100563.84;5357344;33;34086;-83
2023/10/12 12:10:05;;;;;;;9.18;5.00;;;;;;;39.09;25.10;100563.91;5347991;33;34100;-82
2023/10/12 12:13:08;;;;;;;10.52;5.00;;;;;;;39.61;24.54;100562.66;5388663;33;34417;-82
2023/10/12 12:16:15;;;;;;;10.63;5.28;;;;;;;40.56;23.31;100559.25;5383980;33;34001;-82
2023/10/12 12:19:22;;;;;;;10.20;4.78;;;;;;;40.61;23.12;100553.28;5365206;33;34325;-82
2023/10/12 12:22:38;;;;;;;8.68;4.62;;;;;;;40.72;22.96;100542.19;5376022;33;33444;-82
2023/10/12 12:25:42;;;;;;;10.90;4.45;;;;;;;42.51;21.26;100544.47;5345742;33;34608;-82
2023/10/12 12:28:45;;;;;;;8.70;4.53;;;;;;;42.35;21.12;100539.06;5365588;33;35454;-80
2023/10/12 12:31:49;;;;;;;7.40;4.57;;;;;;;42.93;20.90;100535.47;5365464;33;33956;-80
2023/10/12 12:34:54;;;;;;;8.07;4.47;;;;;;;43.11;20.74;100526.28;5373673;33;34775;-80
2023/10/12 12:38:00;;;;;;;5.15;4.18;;;;;;;42.25;21.29;100522.78;5353683;33;33925;-80
2023/10/12 12:41:19;;;;;;;7.75;4.82;;;;;;;40.33;23.38;100512.09;5354950;33;34663;-81
2023/10/12 12:44:23;;;;;;;8.25;4.72;;;;;;;36.82;27.24;100510.16;5385681;33;33562;-80
2023/10/12 12:47:26;;;;;;;8.80;4.90;;;;;;;34.01;31.45;100503.47;5364281;33;33920;-81
2023/10/12 12:50:29;;;;;;;6.87;4.53;;;;;;;32.64;34.28;100505.84;5350525;33;33730;-81
2023/10/12 12:53:33;;;;;;;13.02;5.45;;;;;;;31.32;36.96;100486.62;5365864;33;34496;-80
2023/10/12 12:56:36;;;;;;;8.68;4.60;;;;;;;29.72;39.86;100481.78;5345918;33;34249;-82
2023/10/12 12:59:40;;;;;;;14.18;5.10;;;;;;;28.56;43.05;100485.91;5365789;33;33711;-81
2023/10/12 13:02:43;;;;;;;7.57;4.72;;;;;;;27.60;45.91;100485.69;5354216;33;33602;-81
2023/10/12 13:05:46;;;;;;;8.10;4.47;;;;;;;27.14;47.19;100488.75;5360891;33;33785;-81
2023/10/12 13:08:49;;;;;;;10.70;5.15;;;;;;;26.64;48.62;100488.72;5355083;33;33762;-81
2023/10/12 13:11:53;;;;;;;9.35;5.40;;;;;;;26.70;48.98;100484.00;5368688;33;33562;-80
2023/10/12 13:14:59;;;;;;;11.18;5.37;;;;;;;26.49;48.63;100482.41;5352458;33;33760;-80
2023/10/12 13:18:05;;;;;;;11.27;5.05;;;;;;;26.20;50.18;100474.75;5344467;33;34824;-84
2023/10/12 13:21:14;;;;;;;;;;;;;;;26.11;50.84;100481.94;5354616;33;33766;-85
2023/10/12 13:24:17;;;;;;;9.80;5.57;;;;;;;25.76;50.83;100483.59;5375693;33;34366;-82
2023/10/12 13:27:22;;;;;;;7.57;5.40;;;;;;;25.35;53.14;100483.59;5345070;33;33889;-81
2023/10/12 13:30:25;;;;;;;7.05;5.15;;;;;;;25.39;52.78;100479.19;5355629;33;33091;-80
2023/10/12 13:33:31;;;;;;;14.30;5.68;;;;;;;25.19;54.46;100477.22;5336623;33;34767;-81
2023/10/12 13:36:34;;;;;;;10.88;5.15;;;;;;;25.11;53.99;100469.47;5336647;33;33816;-80
2023/10/12 13:39:36;;;;;;;10.77;5.85;;;;;;;24.80;55.36;100476.81;5362551;33;33540;-81
2023/10/12 13:42:43;;;;;;;11.55;5.35;;;;;;;24.53;56.04;100464.03;5346893;33;33634;-81
2023/10/12 13:45:47;;;;;;;12.13;5.60;;;;;;;24.36;57.39;100472.44;5361418;33;35713;-81
2023/10/12 13:48:53;;;;;;;11.68;5.57;;;;;;;24.10;59.40;100465.16;5363944;33;34854;-79
2023/10/12 13:51:56;;;;;;;10.63;5.85;;;;;;;24.13;58.84;100470.97;5341208;33;33553;-82
2023/10/12 13:54:59;;;;;;;12.77;5.80;;;;;;;23.95;59.69;100463.13;5345190;33;33951;-82
2023/10/12 13:58:02;;;;;;;10.43;6.20;;;;;;;23.87;60.10;100469.09;5340637;33;33629;-82
2023/10/12 14:01:18;;;;;;;14.55;6.53;;;;;;;23.81;60.57;100460.03;5361665;33;33907;-80
2023/10/12 14:04:33;;;;;;;11.12;5.65;;;;;;;23.60;61.36;100453.47;5356726;33;33803;-81
2023/10/12 14:07:37;;;;;;;12.27;5.45;;;;;;;23.59;61.13;100449.09;5366278;33;33565;-80
2023/10/12 14:10:41;;;;;;;9.10;5.28;;;;;;;23.59;61.39;100445.50;5361319;33;34816;-80
2023/10/12 14:13:45;;;;;;;9.18;5.28;;;;;;;23.53;62.09;100444.63;5360278;33;34679;-81
2023/10/12 14:16:48;;;;;;;11.65;5.35;;;;;;;23.48;61.89;100445.41;5375048;33;34708;-81
2023/10/12 14:19:51;;;;;;;9.02;4.97;;;;;;;23.37;62.18;100449.19;5355031;33;33700;-80
2023/10/12 14:22:58;;;;;;;12.57;5.72;;;;;;;23.38;61.94;100442.59;5355199;33;34680;-81
2023/10/12 14:26:01;;;;;;;11.23;5.72;;;;;;;23.32;63.70;100435.41;5355857;33;34590;-80
2023/10/12 14:29:08;;;;;;;10.73;5.97;;;;;;;23.23;63.12;100435.03;5352367;33;33659;-80
2023/10/12 14:32:13;;;;;;;10.60;5.32;;;;;;;23.30;62.91;100443.87;5337287;33;35196;-80
2023/10/12 14:35:18;;;;;;;12.20;5.47;;;;;;;23.38;61.08;100439.03;5354177;33;33463;-80
2023/10/12 14:38:22;;;;;;;10.82;5.07;;;;;;;23.32;60.90;100443.63;5351968;33;33938;-80
2023/10/12 14:41:25;;;;;;;9.75;5.12;;;;;;;23.20;62.33;100445.72;5383033;33;33279;-81
2023/10/12 14:44:28;;;;;;;10.43;5.47;;;;;;;23.11;62.27;100448.13;5377370;33;35270;-81
2023/10/12 14:47:35;;;;;;;11.02;5.50;;;;;;;23.00;63.32;100438.09;5390084;33;34079;-81
2023/10/12 14:50:45;;;;;;;12.27;5.53;;;;;;;22.84;63.47;100437.91;5367312;33;34390;-81
2023/10/12 14:53:50;;;;;;;8.18;5.03;;;;;;;22.82;64.46;100439.25;5381162;33;35118;-85
2023/10/12 14:56:53;;;;;;;10.52;5.70;;;;;;;22.90;62.90;100437.94;5349498;33;34638;-83
2023/10/12 14:59:57;;;;;;;13.75;5.75;;;;;;;22.84;63.49;100437.06;5347899;33;33934;-83
2023/10/12 15:03:00;;;;;;;13.90;5.80;;;;;;;22.79;63.22;100437.03;5359760;33;35007;-83
2023/10/12 15:06:05;;;;;;;13.18;6.22;;;;;;;22.62;65.17;100440.66;5376543;33;33650;-83
2023/10/12 15:09:12;;;;;;;15.20;5.47;;;;;;;22.51;66.75;100444.37;5382631;33;34450;-83
2023/10/12 15:12:15;;;;;;;15.68;5.35;;;;;;;22.36;67.62;100445.00;5363248;33;33419;-83
2023/10/12 15:15:27;;;;;;;14.20;5.87;;;;;;;22.30;67.28;100458.91;5373201;33;32795;-83
2023/10/12 15:18:31;;;;;;;28.87;6.85;;;;;;;22.11;70.06;100450.09;5375131;33;34637;-83
2023/10/12 15:21:34;;;;;;;16.23;6.43;;;;;;;21.99;70.39;100454.88;5366926;33;158631;-83
2023/10/12 15:24:40;;;;;;;13.40;6.20;;;;;;;21.89;70.98;100448.16;5382583;33;34654;-83
2023/10/12 15:27:44;;;;;;;14.30;5.87;;;;;;;21.70;72.46;100453.09;5378229;33;34171;-82
2023/10/12 15:30:47;;;;;;;45.72;8.98;;;;;;;21.57;75.22;100463.53;5362753;33;33732;-83
2023/10/12 15:33:51;;;;;;;21.77;7.05;;;;;;;21.39;77.11;100462.69;5372877;33;33796;-83
2023/10/12 15:36:54;;;;;;;12.65;6.10;;;;;;;21.34;76.48;100470.78;5348175;33;34460;-83
2023/10/12 15:39:57;;;;;;;9.27;5.53;;;;;;;21.19;76.58;100474.06;5364600;33;33471;-83
2023/10/12 15:43:05;;;;;;;15.02;6.87;;;;;;;21.06;77.00;100475.22;5363941;33;33816;-83
2023/10/12 15:46:11;;;;;;;18.62;7.70;;;;;;;20.98;80.57;100480.25;5377549;33;33863;-83
2023/10/12 15:49:14;;;;;;;22.92;7.68;;;;;;;20.84;83.24;100488.72;5380091;33;33734;-82
2023/10/12 15:52:17;;;;;;;16.80;7.40;;;;;;;20.64;84.12;100492.97;5382008;33;34669;-82
2023/10/12 15:55:23;;;;;;;15.18;7.10;;;;;;;20.48;86.44;100486.31;5381862;32;33500;-82
2023/10/12 15:58:27;;;;;;;13.13;6.22;;;;;;;20.29;87.88;100488.34;5397415;32;34112;-82
2023/10/12 16:01:31;;;;;;;13.23;6.28;;;;;;;20.11;89.78;100489.31;5373661;33;34028;-82
2023/10/12 16:04:35;;;;;;;16.05;6.60;;;;;;;19.96;90.92;100494.44;5372597;33;35391;-82
2023/10/12 16:07:38;;;;;;;13.57;6.00;;;;;;;19.80;92.10;100491.34;5337935;33;33735;-82
2023/10/12 16:10:48;;;;;;;10.63;6.07;;;;;;;19.64;93.92;100489.25;5348890;33;34806;-81
2023/10/12 16:13:52;;;;;;;16.80;6.70;;;;;;;19.48;96.55;100488.03;5362265;33;34692;-82
2023/10/12 16:16:57;;;;;;;14.65;6.50;;;;;;;19.30;98.82;100490.81;5362752;33;34100;-82
2023/10/12 16:20:00;;;;;;;14.40;6.80;;;;;;;19.16;100.00;100493.75;5348492;33;34199;-83
2023/10/12 16:23:04;;;;;;;13.75;6.60;;;;;;;19.01;100.00;100488.72;5336053;33;33330;-82
2023/10/12 16:26:09;;;;;;;16.37;7.68;;;;;;;18.89;100.00;100501.44;5348200;33;34664;-83
2023/10/12 16:29:11;;;;;;;17.10;7.15;;;;;;;18.74;100.00;100496.38;5361189;33;33525;-83
2023/10/12 16:32:16;;;;;;;14.60;7.28;;;;;;;18.64;100.00;100498.81;5335919;33;34616;-82
2023/10/12 16:35:24;;;;;;;13.23;6.78;;;;;;;18.53;100.00;100507.72;5336473;33;34397;-85
2023/10/12 16:38:28;;;;;;;14.18;6.87;;;;;;;18.43;100.00;100510.12;5361258;33;35588;-86
2023/10/12 16:41:33;;;;;;;12.55;6.93;;;;;;;18.32;100.00;100506.28;5336752;33;34814;-86
2023/10/12 16:44:36;;;;;;;16.00;7.60;;;;;;;18.22;100.00;100506.81;5361735;33;34095;-82
2023/10/12 16:47:40;;;;;;;13.88;7.15;;;;;;;18.13;100.00;100510.88;5348612;33;33486;-82
2023/10/12 16:50:44;;;;;;;19.48;7.57;;;;;;;18.06;100.00;100512.84;5347946;33;34674;-83
2023/10/12 16:53:50;;;;;;;14.55;7.22;;;;;;;17.98;100.00;100516.66;5337364;33;33944;-83
2023/10/12 16:56:53;;;;;;;14.48;6.30;;;;;;;17.89;100.00;100518.84;5336472;33;33546;-83
2023/10/12 16:59:56;;;;;;;14.52;7.62;;;;;;;17.81;100.00;100519.13;5361347;33;33449;-82
2023/10/12 17:02:58;;;;;;;16.15;7.12;;;;;;;17.75;100.00;100516.41;5361165;33;33571;-82
2023/10/12 17:06:05;;;;;;;13.45;7.50;;;;;;;17.66;100.00;100519.41;5348261;33;33616;-83
2023/10/12 17:09:11;;;;;;;9.88;6.60;;;;;;;17.63;100.00;100517.12;5347355;33;34076;-82
2023/10/12 17:12:14;;;;;;;11.90;7.30;;;;;;;17.60;100.00;100520.28;5348565;33;33811;-83
2023/10/12 17:15:19;;;;;;;17.92;7.62;;;;;;;17.58;100.00;100516.97;5338486;33;34301;-82
